Time;durP1;ratioP1;P1;durP2;ratioP2;P2;SDS_P1;SDS_P2;PMS_P1;PMS_P2;Temp;Humidity;BMP_temperature;BMP_pressure;BME280_temperature;BME280_humidity;BME280_pressure;Samples;Min_cycle;Max_cycle;Signal;HPM_P1;HPM_P2
2021/03/13 00:01:12;;;;;;;5.97;1.40;;;;;;;5.60;74.71;99602.88;5037882;28;20205;-71
2021/03/13 00:03:38;;;;;;;3.50;1.63;;;;;;;5.34;78.38;99593.09;5038388;28;20209;-73
2021/03/13 00:06:04;;;;;;;3.73;1.70;;;;;;;5.11;79.62;99590.06;5043490;28;20286;-73
2021/03/13 00:08:33;;;;;;;1.90;1.43;;;;;;;4.94;81.60;99568.88;5064448;28;20706;-72
2021/03/13 00:10:59;;;;;;;5.30;1.60;;;;;;;4.81;82.92;99567.44;5062645;28;20682;-72
2021/03/13 00:13:26;;;;;;;3.87;1.87;;;;;;;4.71;83.55;99565.06;5062461;28;20195;-73
2021/03/13 00:15:52;;;;;;;1.70;1.57;;;;;;;4.63;84.43;99572.06;5062265;28;20739;-71
2021/03/13 00:18:18;;;;;;;2.40;1.60;;;;;;;4.57;84.20;99564.44;5066132;28;20269;-72
2021/03/13 00:20:45;;;;;;;1.80;1.53;;;;;;;4.54;84.73;99556.75;5059295;28;20713;-72
2021/03/13 00:23:11;;;;;;;5.10;1.40;;;;;;;4.48;84.53;99560.28;5059523;28;20202;-71
2021/03/13 00:25:38;;;;;;;2.60;1.50;;;;;;;4.44;85.16;99565.56;5060856;28;20187;-73
2021/03/13 00:28:05;;;;;;;2.20;1.50;;;;;;;4.38;85.68;99563.94;5039461;28;20225;-72
2021/03/13 00:30:35;;;;;;;2.40;1.50;;;;;;;4.35;86.09;99566.56;5062305;28;20228;-72
2021/03/13 00:33:03;;;;;;;1.50;1.40;;;;;;;4.28;86.82;99577.88;5063937;28;20207;-73
2021/03/13 00:35:30;;;;;;;3.63;1.47;;;;;;;4.23;86.84;99567.63;5058557;28;20221;-72
2021/03/13 00:37:57;;;;;;;4.00;1.13;;;;;;;4.22;86.52;99560.78;5058835;28;20210;-72
2021/03/13 00:40:25;;;;;;;3.37;1.33;;;;;;;4.15;87.22;99565.19;5057452;28;20200;-73
2021/03/13 00:42:52;;;;;;;2.53;1.30;;;;;;;4.12;86.76;99560.06;5047223;28;20205;-70
2021/03/13 00:45:21;;;;;;;1.33;0.97;;;;;;;4.07;86.91;99558.44;5065940;28;20322;-71
2021/03/13 00:47:48;;;;;;;1.63;1.20;;;;;;;4.04;86.54;99561.06;5063411;28;20229;-72
2021/03/13 00:50:17;;;;;;;3.07;1.17;;;;;;;3.99;87.12;99566.28;5066002;28;20303;-71
2021/03/13 00:52:44;;;;;;;1.00;0.90;;;;;;;3.92;87.21;99562.97;5063628;28;20213;-73
2021/03/13 00:55:13;;;;;;;3.27;0.90;;;;;;;3.88;87.14;99552.72;5061435;28;20295;-72
2021/03/13 00:57:43;;;;;;;1.07;0.80;;;;;;;3.82;87.62;99557.97;5047941;28;20198;-73
2021/03/13 01:00:12;;;;;;;0.77;0.63;;;;;;;3.78;87.32;99554.59;5042654;28;20328;-73
2021/03/13 01:02:39;;;;;;;2.07;0.60;;;;;;;3.76;87.07;99548.59;5038115;28;20570;-70
2021/03/13 01:05:09;;;;;;;2.90;1.00;;;;;;;3.80;86.42;99545.13;5045590;28;20276;-72
2021/03/13 01:07:38;;;;;;;1.27;0.80;;;;;;;3.88;85.73;99545.84;5044259;28;20206;-73
2021/03/13 01:10:10;;;;;;;1.50;0.70;;;;;;;3.84;85.51;99543.34;5042875;28;20222;-69
2021/03/13 01:12:36;;;;;;;1.63;0.87;;;;;;;3.81;85.95;99546.81;5038282;28;20196;-73
2021/03/13 01:15:04;;;;;;;3.23;0.80;;;;;;;3.78;85.70;99549.44;5041949;28;20192;-71
2021/03/13 01:17:30;;;;;;;0.73;0.60;;;;;;;3.78;85.39;99550.31;5064686;28;20213;-73
2021/03/13 01:19:56;;;;;;;0.90;0.60;;;;;;;3.79;85.39;99543.41;5045895;28;20242;-72
2021/03/13 01:22:24;;;;;;;2.43;0.60;;;;;;;3.76;85.24;99557.22;5059085;28;20203;-72
2021/03/13 01:24:50;;;;;;;1.33;0.80;;;;;;;3.73;85.62;99561.53;5038176;28;20575;-72
2021/03/13 01:27:17;;;;;;;0.87;0.60;;;;;;;3.71;85.09;99558.13;5028276;28;20214;-68
2021/03/13 01:29:44;;;;;;;0.80;0.60;;;;;;;3.68;85.51;99556.47;5058043;28;20211;-73
2021/03/13 01:32:10;;;;;;;1.00;0.70;;;;;;;3.71;85.21;99548.69;5061505;28;20776;-70
2021/03/13 01:34:38;;;;;;;0.70;0.60;;;;;;;3.66;85.59;99553.06;5032671;28;20198;-73
2021/03/13 01:37:13;;;;;;;2.93;0.70;;;;;;;3.64;85.45;99547.09;5038045;28;20209;-72
2021/03/13 01:39:42;;;;;;;1.03;0.60;;;;;;;3.61;85.50;99544.53;5042472;28;20219;-73
2021/03/13 01:42:13;;;;;;;2.00;0.80;;;;;;;3.60;85.34;99543.66;5040994;28;20579;-71
2021/03/13 01:44:40;;;;;;;0.53;0.53;;;;;;;3.60;85.32;99540.25;5043830;28;20200;-72
2021/03/13 01:47:12;;;;;;;0.50;0.50;;;;;;;3.56;85.69;99544.59;5047862;28;20289;-71
2021/03/13 01:49:39;;;;;;;0.83;0.60;;;;;;;3.52;85.48;99542.94;5059365;28;20245;-69
2021/03/13 01:52:06;;;;;;;0.90;0.60;;;;;;;3.51;85.93;99551.53;5035284;28;20362;-73
2021/03/13 01:54:32;;;;;;;0.63;0.53;;;;;;;3.48;85.92;99551.59;5042199;28;20306;-73
2021/03/13 01:57:00;;;;;;;2.47;0.70;;;;;;;3.47;85.71;99552.47;5043491;28;20328;-72
2021/03/13 01:59:29;;;;;;;0.87;0.60;;;;;;;3.40;85.88;99543.97;5037958;28;20231;-70
2021/03/13 02:01:57;;;;;;;1.27;0.60;;;;;;;3.36;86.23;99538.88;5036299;28;20204;-71
2021/03/13 02:04:25;;;;;;;1.33;0.70;;;;;;;3.35;86.07;99543.19;5055411;28;20210;-70
2021/03/13 02:07:01;;;;;;;0.60;0.60;;;;;;;3.36;85.75;99555.22;5028137;28;20191;-72
2021/03/13 02:09:35;;;;;;;0.43;0.43;;;;;;;3.37;85.67;99544.00;5033919;28;20268;-72
2021/03/13 02:12:16;;;;;;;0.60;0.60;;;;;;;3.36;85.92;99541.44;5041722;28;20206;-70
2021/03/13 02:14:50;;;;;;;1.90;0.53;;;;;;;3.34;85.94;99538.03;5041439;28;20207;-72
2021/03/13 02:17:31;;;;;;;0.77;0.50;;;;;;;3.33;86.07;99531.22;5045041;28;20546;-72
2021/03/13 02:20:29;;;;;;;0.40;0.40;;;;;;;3.31;86.02;99527.81;5059039;28;20313;-72
2021/03/13 02:23:06;;;;;;;0.50;0.40;;;;;;;3.39;86.12;99533.69;5012961;28;20210;-72
2021/03/13 02:26:05;;;;;;;1.90;0.80;;;;;;;3.40;86.12;99530.25;5055313;28;20228;-71
2021/03/13 02:28:51;;;;;;;0.83;0.40;;;;;;;3.39;85.80;99529.41;5044709;28;20223;-73
2021/03/13 02:31:22;;;;;;;1.47;0.50;;;;;;;3.36;86.52;99526.88;5069325;28;20229;-73
2021/03/13 02:33:52;;;;;;;0.77;0.40;;;;;;;3.40;86.49;99532.81;5039934;28;20214;-72
2021/03/13 02:36:31;;;;;;;0.70;0.50;;;;;;;3.48;86.44;99528.38;5042712;28;20215;-70
2021/03/13 02:39:05;;;;;;;1.33;0.47;;;;;;;3.50;86.44;99541.25;5044884;28;20246;-73
2021/03/13 02:41:37;;;;;;;0.97;0.40;;;;;;;3.46;87.04;99530.13;5042478;28;20269;-73
2021/03/13 02:44:08;;;;;;;0.40;0.40;;;;;;;3.43;86.96;99525.06;5038337;28;20580;-72
2021/03/13 02:46:45;;;;;;;0.77;0.50;;;;;;;3.37;87.11;99527.72;5059860;28;20228;-70
2021/03/13 02:49:14;;;;;;;0.47;0.40;;;;;;;3.41;87.18;99527.66;5046196;28;20574;-72
2021/03/13 02:51:42;;;;;;;0.73;0.50;;;;;;;3.39;87.19;99528.53;5041064;28;20371;-73
2021/03/13 02:54:11;;;;;;;1.53;0.70;;;;;;;3.35;86.99;99527.72;5026452;28;20882;-71
2021/03/13 02:56:41;;;;;;;1.33;0.50;;;;;;;3.36;87.34;99531.13;5039143;28;20194;-72
2021/03/13 02:59:09;;;;;;;3.70;0.70;;;;;;;3.36;87.47;99537.16;5039800;28;20222;-70
2021/03/13 03:01:39;;;;;;;0.40;0.40;;;;;;;3.41;87.54;99531.94;5037866;28;20256;-72
2021/03/13 03:04:07;;;;;;;2.30;0.70;;;;;;;3.44;87.32;99529.31;5062918;28;20204;-73
2021/03/13 03:06:58;;;;;;;2.07;0.63;;;;;;;3.35;87.69;99522.56;5002331;28;20208;-73
2021/03/13 03:09:27;;;;;;;1.07;0.70;;;;;;;3.32;87.45;99514.03;4965864;28;20709;-73
2021/03/13 03:11:54;;;;;;;0.77;0.60;;;;;;;3.27;88.04;99519.25;4981548;28;20204;-72
2021/03/13 03:14:22;;;;;;;1.47;0.70;;;;;;;3.30;87.82;99520.94;4988427;28;20230;-73
2021/03/13 03:16:53;;;;;;;1.60;0.90;;;;;;;3.27;88.35;99518.41;4981788;28;20224;-73
2021/03/13 03:19:26;;;;;;;3.17;0.80;;;;;;;3.22;88.45;99506.44;4972506;28;20267;-72
2021/03/13 03:22:03;;;;;;;1.13;0.77;;;;;;;3.19;88.41;99505.63;4984655;28;20212;-72
2021/03/13 03:24:30;;;;;;;3.47;1.00;;;;;;;3.18;88.51;99516.78;4986773;28;20207;-72
2021/03/13 03:26:59;;;;;;;1.20;0.83;;;;;;;3.19;88.76;99514.19;4981772;28;20287;-71
2021/03/13 03:29:26;;;;;;;2.70;0.80;;;;;;;3.18;88.63;99512.53;4984448;28;20228;-72
2021/03/13 03:31:52;;;;;;;1.63;0.90;;;;;;;3.16;88.75;99527.13;4986327;28;20216;-71
2021/03/13 03:34:18;;;;;;;1.93;0.70;;;;;;;3.14;88.98;99518.56;5000083;28;20205;-69
2021/03/13 03:36:47;;;;;;;0.80;0.70;;;;;;;3.13;89.00;99522.03;4964473;28;20665;-72
2021/03/13 03:39:14;;;;;;;1.07;0.57;;;;;;;3.08;88.98;99520.38;5044397;28;20275;-72
2021/03/13 03:41:43;;;;;;;0.80;0.77;;;;;;;3.18;88.91;99524.53;5068585;28;20213;-72
2021/03/13 03:44:14;;;;;;;1.23;0.80;;;;;;;3.21;88.53;99532.22;5046203;28;20214;-73
2021/03/13 03:46:46;;;;;;;1.93;0.80;;;;;;;3.22;88.47;99529.63;5031963;28;20644;-72
2021/03/13 03:49:15;;;;;;;1.63;1.00;;;;;;;3.27;88.34;99533.84;5067850;28;20250;-72
2021/03/13 03:51:54;;;;;;;2.03;0.80;;;;;;;3.28;88.50;99531.25;5050472;28;20221;-72
2021/03/13 03:54:21;;;;;;;2.87;1.07;;;;;;;3.33;88.82;99536.38;5063313;28;20239;-73
2021/03/13 03:56:48;;;;;;;1.63;0.90;;;;;;;3.36;88.40;99533.72;5065642;28;20199;-72
2021/03/13 03:59:16;;;;;;;3.17;0.60;;;;;;;3.42;87.99;99529.34;5066022;28;20257;-72
2021/03/13 04:01:46;;;;;;;2.20;1.20;;;;;;;3.47;87.71;99536.16;5059540;28;20199;-72
2021/03/13 04:04:13;;;;;;;0.83;0.77;;;;;;;3.41;87.62;99537.09;5042962;28;20198;-70
2021/03/13 04:06:40;;;;;;;1.00;0.67;;;;;;;3.36;87.42;99536.28;5065924;28;20203;-69
2021/03/13 04:09:08;;;;;;;1.43;0.80;;;;;;;3.27;87.68;99536.44;5069255;28;20237;-72
2021/03/13 04:11:37;;;;;;;1.13;0.60;;;;;;;3.22;87.33;99534.78;5062438;28;20498;-73
2021/03/13 04:14:04;;;;;;;0.97;0.60;;;;;;;3.16;87.50;99539.16;5069217;28;20850;-73
2021/03/13 04:16:30;;;;;;;3.00;0.60;;;;;;;3.10;87.64;99536.69;5060176;28;20273;-72
2021/03/13 04:18:59;;;;;;;1.00;0.60;;;;;;;3.05;87.74;99535.88;5045968;28;20219;-73
2021/03/13 04:21:26;;;;;;;0.50;0.50;;;;;;;2.99;88.00;99531.63;5040920;28;20607;-72
2021/03/13 04:23:53;;;;;;;2.60;0.80;;;;;;;2.95;88.03;99523.09;5065362;28;20222;-69
2021/03/13 04:26:21;;;;;;;0.90;0.50;;;;;;;2.91;87.98;99529.16;5031477;28;20623;-73
2021/03/13 04:28:48;;;;;;;1.33;0.63;;;;;;;2.86;88.37;99525.78;5040819;28;20227;-70
2021/03/13 04:31:16;;;;;;;0.77;0.70;;;;;;;2.82;88.48;99519.00;5067607;28;20732;-70
2021/03/13 04:33:43;;;;;;;2.83;0.80;;;;;;;2.74;88.41;99520.78;5044783;28;20606;-70
2021/03/13 04:36:11;;;;;;;3.10;0.70;;;;;;;2.73;88.47;99521.69;5068556;28;20202;-72
2021/03/13 04:38:38;;;;;;;0.70;0.60;;;;;;;2.69;88.55;99512.28;5064760;28;20614;-72
2021/03/13 04:41:06;;;;;;;0.60;0.60;;;;;;;2.63;88.94;99515.78;5065731;28;20190;-72
2021/03/13 04:43:33;;;;;;;1.17;0.60;;;;;;;2.57;88.92;99528.69;5062191;28;20206;-69
2021/03/13 04:46:01;;;;;;;1.60;0.50;;;;;;;2.53;89.09;99527.03;5063935;28;20279;-70
2021/03/13 04:48:31;;;;;;;1.90;0.70;;;;;;;2.53;89.30;99521.88;5065629;28;20226;-71
2021/03/13 04:50:57;;;;;;;1.03;0.60;;;;;;;2.50;89.13;99520.22;5061162;28;20954;-73
2021/03/13 04:53:23;;;;;;;0.57;0.50;;;;;;;2.47;89.28;99513.38;5050095;28;20213;-71
2021/03/13 04:55:49;;;;;;;0.60;0.50;;;;;;;2.48;89.80;99514.25;5044195;28;20208;-71
2021/03/13 04:58:15;;;;;;;0.70;0.63;;;;;;;2.47;89.56;99510.78;5048952;28;20237;-71
2021/03/13 05:00:44;;;;;;;0.40;0.40;;;;;;;2.47;89.69;99504.81;5037504;28;20207;-70
2021/03/13 05:03:10;;;;;;;0.87;0.60;;;;;;;2.44;89.84;99505.66;5048810;28;20200;-71
2021/03/13 05:05:35;;;;;;;0.70;0.50;;;;;;;2.44;90.02;99491.97;5062936;28;20202;-72
2021/03/13 05:08:02;;;;;;;1.00;0.60;;;;;;;2.51;89.72;99492.75;5063854;28;20195;-72
2021/03/13 05:10:28;;;;;;;0.70;0.70;;;;;;;2.57;89.90;99495.22;5065172;28;20727;-68
2021/03/13 05:12:54;;;;;;;0.97;0.60;;;;;;;2.63;89.73;99493.44;5059958;28;20743;-71
2021/03/13 05:15:21;;;;;;;0.77;0.70;;;;;;;2.65;89.70;99491.69;5066398;28;20230;-72
2021/03/13 05:17:48;;;;;;;1.20;0.63;;;;;;;2.70;89.48;99488.25;5062113;28;20194;-72
2021/03/13 05:20:14;;;;;;;0.50;0.50;;;;;;;2.74;89.39;99489.91;5067252;28;20266;-72
2021/03/13 05:22:41;;;;;;;0.87;0.60;;;;;;;2.76;89.36;99483.88;5047145;28;20218;-72
2021/03/13 05:25:08;;;;;;;0.90;0.60;;;;;;;2.75;89.17;99481.31;5064999;28;20733;-72
2021/03/13 05:27:38;;;;;;;1.93;0.47;;;;;;;2.77;89.56;99490.72;5062030;28;20230;-72
2021/03/13 05:30:06;;;;;;;0.67;0.50;;;;;;;2.81;89.06;99484.69;5065065;28;20222;-73
2021/03/13 05:32:32;;;;;;;4.30;0.83;;;;;;;2.90;88.96;99481.09;5059142;28;20238;-72
2021/03/13 05:34:59;;;;;;;1.00;0.63;;;;;;;2.89;88.58;99486.31;5061868;28;20545;-71
2021/03/13 05:37:25;;;;;;;1.13;0.80;;;;;;;2.84;88.47;99484.63;5067364;28;20210;-71
2021/03/13 05:39:51;;;;;;;0.53;0.50;;;;;;;2.80;88.84;99477.81;5060826;28;20218;-72
2021/03/13 05:42:18;;;;;;;0.63;0.63;;;;;;;2.75;88.94;99482.16;5061439;28;20206;-71
2021/03/13 05:44:44;;;;;;;0.70;0.70;;;;;;;2.73;89.21;99480.50;5066170;28;20207;-72
2021/03/13 05:47:11;;;;;;;1.00;0.80;;;;;;;2.77;88.91;99490.72;5059828;28;20358;-72
2021/03/13 05:49:39;;;;;;;1.37;0.80;;;;;;;2.77;89.23;99488.13;5066251;28;20628;-71
2021/03/13 05:52:07;;;;;;;0.87;0.60;;;;;;;2.80;89.04;99480.38;5063316;28;20546;-73
2021/03/13 05:54:33;;;;;;;11.80;6.80;;;;;;;2.81;89.10;99481.22;5059251;28;20248;-73
2021/03/13 05:57:00;;;;;;;6.97;5.13;;;;;;;2.82;88.95;99468.34;5063513;28;20199;-72
2021/03/13 05:59:27;;;;;;;2.67;1.80;;;;;;;2.90;88.98;99470.81;5067974;28;20294;-73
2021/03/13 06:01:53;;;;;;;3.97;1.90;;;;;;;2.97;88.60;99466.44;5059491;28;20551;-72
2021/03/13 06:04:19;;;;;;;7.57;3.87;;;;;;;2.99;88.18;99464.69;5066029;28;20213;-73
2021/03/13 06:06:48;;;;;;;11.17;4.73;;;;;;;3.02;88.73;99470.63;5062896;28;20277;-72
2021/03/13 06:09:15;;;;;;;4.47;2.30;;;;;;;3.11;88.46;99463.66;5068908;28;20304;-71
2021/03/13 06:11:42;;;;;;;5.87;2.90;;;;;;;3.19;88.23;99473.00;5053805;28;20855;-71
2021/03/13 06:14:08;;;;;;;5.70;2.83;;;;;;;3.27;88.12;99469.44;5060818;28;20607;-73
2021/03/13 06:16:34;;;;;;;14.63;5.40;;;;;;;3.36;87.62;99462.44;5058572;28;20209;-72
2021/03/13 06:19:00;;;;;;;10.97;4.17;;;;;;;3.43;87.42;99463.22;5040934;28;20265;-73
2021/03/13 06:21:30;;;;;;;10.33;4.73;;;;;;;3.47;87.33;99462.28;5069489;28;20801;-72
2021/03/13 06:23:58;;;;;;;11.50;4.57;;;;;;;3.54;86.94;99463.03;5058290;28;20206;-73
2021/03/13 06:26:26;;;;;;;13.23;5.03;;;;;;;3.63;86.41;99459.47;5064595;28;20678;-73
2021/03/13 06:28:54;;;;;;;13.33;4.67;;;;;;;3.67;86.34;99463.69;5058232;28;20283;-73
2021/03/13 06:31:28;;;;;;;17.93;5.47;;;;;;;3.76;85.72;99463.53;5064072;28;20222;-72
2021/03/13 06:33:55;;;;;;;18.87;6.10;;;;;;;3.83;85.68;99469.44;5070983;28;20209;-72
2021/03/13 06:36:23;;;;;;;17.70;7.20;;;;;;;3.89;85.49;99459.03;5061049;28;20219;-72
2021/03/13 06:38:50;;;;;;;16.97;6.60;;;;;;;3.96;85.65;99465.78;5061156;28;20231;-71
2021/03/13 06:41:18;;;;;;;13.07;5.83;;;;;;;4.02;85.19;99460.50;5060047;28;20225;-72
2021/03/13 06:43:46;;;;;;;9.87;4.67;;;;;;;4.16;84.72;99461.09;5063884;28;20199;-68
2021/03/13 06:46:15;;;;;;;4.47;2.50;;;;;;;4.28;84.09;99457.44;5060814;28;20207;-72
2021/03/13 06:48:43;;;;;;;4.80;1.97;;;;;;;4.43;83.77;99458.00;5066944;28;20227;-72
2021/03/13 06:51:24;;;;;;;2.57;1.60;;;;;;;4.51;83.47;99469.03;5044830;28;20262;-72
2021/03/13 06:54:04;;;;;;;3.90;1.70;;;;;;;4.54;83.35;99456.94;5068551;28;20191;-73
2021/03/13 06:56:32;;;;;;;1.43;1.30;;;;;;;4.62;82.59;99456.75;5055548;28;20276;-73
2021/03/13 06:59:00;;;;;;;2.63;1.27;;;;;;;4.67;82.28;99460.09;5024917;28;20226;-72
2021/03/13 07:01:27;;;;;;;2.37;1.70;;;;;;;4.77;82.27;99459.91;5055399;28;20298;-70
2021/03/13 07:03:54;;;;;;;2.33;1.80;;;;;;;4.82;81.64;99455.50;5045036;28;20566;-72
2021/03/13 07:06:20;;;;;;;4.90;2.30;;;;;;;4.89;81.61;99457.06;5063757;28;20215;-73
2021/03/13 07:08:47;;;;;;;5.70;3.00;;;;;;;4.95;81.89;99456.09;5058744;28;20228;-71
2021/03/13 07:11:16;;;;;;;4.87;2.30;;;;;;;4.98;81.85;99456.88;5062138;28;20226;-72
2021/03/13 07:13:43;;;;;;;11.97;5.37;;;;;;;5.03;81.21;99456.75;5060140;28;20232;-72
2021/03/13 07:16:27;;;;;;;6.80;3.10;;;;;;;5.09;80.83;99454.91;5072661;28;20213;-71
2021/03/13 07:18:54;;;;;;;6.43;3.67;;;;;;;5.16;81.34;99444.44;5035201;28;20605;-72
2021/03/13 07:21:22;;;;;;;2.70;2.20;;;;;;;5.19;81.04;99442.63;5060629;28;20195;-72
2021/03/13 07:24:01;;;;;;;3.50;2.63;;;;;;;5.22;82.01;99447.72;5054574;28;20203;-72
2021/03/13 07:26:32;;;;;;;2.93;2.33;;;;;;;5.23;82.17;99440.81;5044772;28;20229;-72
2021/03/13 07:29:01;;;;;;;3.17;2.13;;;;;;;5.24;83.63;99442.50;5059218;28;20222;-72
2021/03/13 07:31:30;;;;;;;2.87;1.50;;;;;;;5.24;83.25;99438.22;5060373;28;20231;-73
2021/03/13 07:34:01;;;;;;;3.20;1.73;;;;;;;5.22;84.39;99436.53;5052538;28;20666;-72
2021/03/13 07:36:28;;;;;;;5.70;3.27;;;;;;;5.22;85.28;99428.78;5057950;28;20336;-71
2021/03/13 07:39:01;;;;;;;5.20;2.97;;;;;;;5.18;86.27;99422.84;5061376;28;20725;-72
2021/03/13 07:41:31;;;;;;;3.80;2.20;;;;;;;5.16;87.59;99427.19;5059110;28;20236;-72
2021/03/13 07:43:57;;;;;;;3.70;2.33;;;;;;;5.13;88.56;99416.91;5064707;28;20195;-72
2021/03/13 07:46:23;;;;;;;3.47;2.67;;;;;;;5.11;89.21;99419.53;5041549;28;20240;-73
2021/03/13 07:48:52;;;;;;;2.20;1.63;;;;;;;5.02;89.68;99417.16;5066838;28;20222;-73
2021/03/13 07:51:19;;;;;;;2.57;2.20;;;;;;;5.00;90.63;99418.09;5059585;28;20234;-71
2021/03/13 07:53:46;;;;;;;1.50;1.40;;;;;;;4.98;91.50;99410.38;5064354;28;20277;-72
2021/03/13 07:56:13;;;;;;;1.77;1.37;;;;;;;4.99;92.10;99406.91;5063638;28;20207;-69
2021/03/13 07:58:40;;;;;;;1.40;1.27;;;;;;;4.97;91.79;99406.09;5027347;28;20210;-73
2021/03/13 08:01:07;;;;;;;1.60;1.50;;;;;;;4.97;92.90;99405.25;5044276;28;20199;-70
2021/03/13 08:03:39;;;;;;;1.53;1.43;;;;;;;4.96;92.72;99403.53;5059066;28;20190;-71
2021/03/13 08:06:07;;;;;;;2.50;1.43;;;;;;;4.90;92.42;99400.22;5063079;28;20206;-70
2021/03/13 08:08:34;;;;;;;1.83;1.20;;;;;;;4.87;93.50;99397.72;5053840;28;20231;-72
2021/03/13 08:11:01;;;;;;;2.00;1.60;;;;;;;4.87;94.36;99387.38;5057122;28;20596;-73
2021/03/13 08:13:58;;;;;;;2.23;1.73;;;;;;;4.84;94.36;99391.78;5056520;28;20205;-70
2021/03/13 08:16:42;;;;;;;1.83;1.40;;;;;;;4.77;94.94;99392.75;4964861;28;20206;-70
2021/03/13 08:19:30;;;;;;;4.07;1.50;;;;;;;4.76;95.80;99379.00;5051605;28;20241;-74
2021/03/13 08:22:11;;;;;;;1.97;1.80;;;;;;;4.70;96.24;99361.94;5060859;28;20195;-73
2021/03/13 08:24:43;;;;;;;2.23;1.67;;;;;;;4.73;96.36;99358.41;5057013;28;20634;-71
2021/03/13 08:27:11;;;;;;;3.07;1.50;;;;;;;4.74;97.41;99342.03;5044846;28;20271;-73
2021/03/13 08:29:56;;;;;;;4.73;2.03;;;;;;;4.76;97.52;99334.28;5059846;28;20809;-73
2021/03/13 08:33:02;;;;;;;2.47;1.30;;;;;;;4.79;97.64;99336.78;5060465;28;20490;-73
2021/03/13 08:35:43;;;;;;;5.07;3.33;;;;;;;4.82;98.31;99336.69;5058276;28;20210;-70
2021/03/13 08:38:11;;;;;;;2.07;1.80;;;;;;;4.84;97.88;99334.94;5061374;28;20896;-73
2021/03/13 08:40:45;;;;;;;5.90;3.90;;;;;;;4.84;98.43;99332.38;5055922;28;20245;-72
2021/03/13 08:43:33;;;;;;;4.40;2.67;;;;;;;4.87;99.27;99321.94;5067109;28;20332;-73
2021/03/13 08:46:00;;;;;;;9.53;5.60;;;;;;;4.81;98.63;99328.09;5062024;28;20290;-73
2021/03/13 08:49:01;;;;;;;5.27;3.30;;;;;;;4.85;99.14;99316.81;5057991;28;20222;-72
2021/03/13 08:51:27;;;;;;;7.10;4.93;;;;;;;4.88;99.40;99321.91;5053510;28;20233;-72
2021/03/13 08:53:54;;;;;;;4.17;2.57;;;;;;;4.92;99.50;99304.59;5070368;28;20255;-72
2021/03/13 08:56:44;;;;;;;5.20;4.10;;;;;;;4.93;99.12;99306.31;5070815;28;20210;-73
2021/03/13 08:59:15;;;;;;;3.73;2.87;;;;;;;4.99;100.00;99302.72;5060975;28;20219;-73
2021/03/13 09:01:59;;;;;;;3.20;2.40;;;;;;;5.04;99.91;99291.38;5059377;28;20357;-70
2021/03/13 09:04:25;;;;;;;3.10;2.23;;;;;;;5.18;100.00;99278.13;5042395;28;20289;-72
2021/03/13 09:06:51;;;;;;;3.40;1.90;;;;;;;5.26;99.66;99271.03;5060230;28;20201;-73
2021/03/13 09:09:18;;;;;;;1.80;1.53;;;;;;;5.38;99.57;99267.28;5042665;28;20226;-70
2021/03/13 09:11:45;;;;;;;2.33;1.50;;;;;;;5.44;98.57;99267.13;5063268;28;20225;-73
2021/03/13 09:14:13;;;;;;;2.70;1.70;;;;;;;5.56;99.18;99260.78;5060218;28;20305;-72
2021/03/13 09:16:41;;;;;;;2.70;1.90;;;;;;;5.65;98.48;99244.16;5065462;28;20198;-71
2021/03/13 09:19:12;;;;;;;3.90;2.60;;;;;;;5.72;98.31;99247.38;5044685;28;20272;-70
2021/03/13 09:21:41;;;;;;;3.80;2.27;;;;;;;5.76;97.63;99239.50;5063994;28;20191;-71
2021/03/13 09:24:09;;;;;;;2.83;2.43;;;;;;;5.80;97.33;99238.53;5057689;28;20248;-71
2021/03/13 09:26:36;;;;;;;7.13;3.97;;;;;;;5.86;97.50;99235.78;5061794;28;20217;-72
2021/03/13 09:29:03;;;;;;;5.20;3.03;;;;;;;5.91;97.46;99230.47;5064575;28;20722;-73
2021/03/13 09:31:29;;;;;;;3.80;2.70;;;;;;;5.96;97.61;99222.59;5059127;28;20297;-72
2021/03/13 09:34:14;;;;;;;3.87;2.90;;;;;;;5.95;96.72;99226.06;5064271;28;20792;-70
2021/03/13 09:36:40;;;;;;;3.33;2.47;;;;;;;6.03;96.54;99218.94;5064203;28;20661;-74
2021/03/13 09:39:06;;;;;;;4.67;2.97;;;;;;;6.07;96.81;99210.22;5064114;28;20226;-73
2021/03/13 09:41:32;;;;;;;7.60;3.50;;;;;;;6.03;96.21;99216.34;5060648;28;20244;-73
2021/03/13 09:43:59;;;;;;;3.43;2.90;;;;;;;5.99;95.78;99200.06;5042690;28;20321;-73
2021/03/13 09:46:29;;;;;;;3.33;2.67;;;;;;;6.01;96.40;99197.44;5067478;28;20210;-73
2021/03/13 09:48:55;;;;;;;3.00;2.40;;;;;;;6.06;96.71;99186.03;5062415;28;20223;-72
2021/03/13 09:51:21;;;;;;;3.43;2.63;;;;;;;6.12;96.75;99177.28;5040309;28;20227;-71
2021/03/13 09:53:48;;;;;;;3.20;2.67;;;;;;;6.14;96.57;99169.44;5061368;28;20260;-72
2021/03/13 09:56:13;;;;;;;3.63;2.50;;;;;;;6.20;96.39;99172.69;5049432;28;20199;-73
2021/03/13 09:58:39;;;;;;;3.97;2.70;;;;;;;6.20;96.04;99171.84;5059897;28;20223;-71
2021/03/13 10:01:07;;;;;;;3.20;2.90;;;;;;;6.18;94.74;99165.88;5065382;28;20213;-73
2021/03/13 10:03:33;;;;;;;3.80;2.63;;;;;;;6.23;95.28;99159.66;5059281;28;20303;-72
2021/03/13 10:05:59;;;;;;;3.97;3.37;;;;;;;6.30;95.13;99160.31;5058485;28;20286;-72
2021/03/13 10:08:33;;;;;;;3.40;2.87;;;;;;;6.41;95.77;99147.84;5060659;28;20214;-72
2021/03/13 10:11:01;;;;;;;2.83;2.53;;;;;;;6.46;95.76;99139.13;5060961;28;20250;-70
2021/03/13 10:13:29;;;;;;;3.83;3.13;;;;;;;6.52;95.14;99134.56;5039368;28;20633;-72
2021/03/13 10:15:55;;;;;;;3.73;3.20;;;;;;;6.58;94.37;99128.34;5063020;28;20248;-72
2021/03/13 10:18:26;;;;;;;4.73;3.00;;;;;;;6.60;93.71;99122.22;5056161;28;20220;-71
2021/03/13 10:20:54;;;;;;;5.03;3.10;;;;;;;6.63;94.03;99122.09;5062179;28;20199;-73
2021/03/13 10:23:23;;;;;;;4.07;3.03;;;;;;;6.64;93.31;99115.19;5063473;28;20241;-72
2021/03/13 10:25:54;;;;;;;5.30;3.63;;;;;;;6.67;93.70;99115.06;5055022;28;20256;-72
2021/03/13 10:28:20;;;;;;;4.90;3.30;;;;;;;6.66;94.05;99103.00;5062018;28;20920;-73
2021/03/13 10:30:47;;;;;;;4.50;3.30;;;;;;;6.73;94.46;99095.88;5053651;28;20317;-73
2021/03/13 10:33:14;;;;;;;3.30;2.93;;;;;;;6.70;93.62;99107.22;5038102;28;20281;-73
2021/03/13 10:35:41;;;;;;;4.90;2.80;;;;;;;6.71;94.15;99095.94;5042352;28;20200;-71
2021/03/13 10:38:18;;;;;;;3.53;2.70;;;;;;;6.71;94.29;99093.34;5055347;28;20234;-74
2021/03/13 10:40:46;;;;;;;4.60;3.20;;;;;;;6.70;94.82;99078.72;5063288;28;20266;-73
2021/03/13 10:43:18;;;;;;;3.33;2.87;;;;;;;6.70;95.10;99081.31;5040090;28;20196;-71
2021/03/13 10:45:47;;;;;;;3.43;2.83;;;;;;;6.70;94.96;99083.91;5060157;28;20280;-73
2021/03/13 10:48:13;;;;;;;4.40;2.80;;;;;;;6.70;95.40;99068.34;5058381;28;20707;-75
2021/03/13 10:50:43;;;;;;;3.10;2.80;;;;;;;6.65;94.83;99072.84;5061933;28;20760;-72
2021/03/13 10:53:32;;;;;;;4.00;3.13;;;;;;;6.61;95.33;99060.88;5058571;28;20210;-72
2021/03/13 10:56:00;;;;;;;4.30;3.77;;;;;;;6.59;95.35;99050.56;5063788;28;20625;-72
2021/03/13 10:58:27;;;;;;;5.20;4.03;;;;;;;6.58;95.26;99054.09;5057771;28;20227;-73
2021/03/13 11:00:53;;;;;;;4.50;3.40;;;;;;;6.56;95.64;99045.53;5049648;28;20966;-73
2021/03/13 11:03:20;;;;;;;3.93;3.50;;;;;;;6.52;95.44;99046.50;5040123;28;20221;-72
2021/03/13 11:05:49;;;;;;;4.30;3.43;;;;;;;6.48;95.61;99042.34;5060163;28;20235;-75
2021/03/13 11:08:15;;;;;;;5.00;3.67;;;;;;;6.48;96.01;99034.59;5063919;28;20231;-74
2021/03/13 11:10:42;;;;;;;6.50;4.43;;;;;;;6.48;96.61;99021.63;5034337;28;20296;-75
2021/03/13 11:13:08;;;;;;;5.20;4.07;;;;;;;6.46;96.72;99025.19;5058213;28;20923;-74
2021/03/13 11:15:34;;;;;;;4.13;3.47;;;;;;;6.42;96.31;99027.88;5061579;28;20182;-75
2021/03/13 11:18:00;;;;;;;4.37;2.90;;;;;;;6.44;96.17;99023.50;5066851;28;20221;-76
2021/03/13 11:20:26;;;;;;;2.97;2.47;;;;;;;6.44;95.35;99009.72;5063931;28;20194;-75
2021/03/13 11:22:53;;;;;;;4.47;2.67;;;;;;;6.44;95.67;99010.53;5058873;28;20208;-75
2021/03/13 11:25:19;;;;;;;7.77;4.93;;;;;;;6.44;95.93;98996.75;5068578;28;20207;-73
2021/03/13 11:27:45;;;;;;;12.47;6.20;;;;;;;6.44;95.96;98995.00;5064067;28;20206;-74
2021/03/13 11:30:13;;;;;;;11.90;7.50;;;;;;;6.47;96.20;98991.44;5070747;28;20210;-75
2021/03/13 11:32:39;;;;;;;12.43;7.70;;;;;;;6.49;96.62;98981.91;5042323;28;20203;-74
2021/03/13 11:35:06;;;;;;;5.77;3.93;;;;;;;6.48;96.88;98987.13;5043359;28;20203;-74
2021/03/13 11:37:32;;;;;;;5.73;4.60;;;;;;;6.49;97.68;98971.56;5056994;28;20277;-74
2021/03/13 11:39:59;;;;;;;7.83;4.63;;;;;;;6.47;97.56;98981.09;5064445;28;20622;-74
2021/03/13 11:42:28;;;;;;;7.40;4.63;;;;;;;6.51;97.88;98968.88;5060030;28;20202;-76
2021/03/13 11:44:55;;;;;;;4.40;3.67;;;;;;;6.50;97.97;98965.47;5035543;28;20280;-75
2021/03/13 11:47:21;;;;;;;7.00;4.60;;;;;;;6.53;98.09;98959.34;5060599;28;20203;-74
2021/03/13 11:49:47;;;;;;;8.23;5.13;;;;;;;6.54;97.57;98953.25;5060569;28;20643;-75
2021/03/13 11:52:16;;;;;;;12.23;7.17;;;;;;;6.56;96.51;98947.13;5062265;28;20560;-76